sensor_id;sensor_type;location;lat;lon;timestamp;P1;durP1;ratioP1;P2;durP2;ratioP2
57463;SDS011;43309;44.418;26.122;2023-10-09T00:01:52;1.10;;;0.80;;
57463;SDS011;43309;44.418;26.122;2023-10-09T00:04:20;0.70;;;0.70;;
57463;SDS011;43309;44.418;26.122;2023-10-09T00:06:47;0.90;;;0.90;;
57463;SDS011;43309;44.418;26.122;2023-10-09T00:09:15;1.00;;;0.90;;
57463;SDS011;43309;44.418;26.122;2023-10-09T00:11:51;2.20;;;0.80;;
57463;SDS011;43309;44.418;26.122;2023-10-09T00:14:28;1.10;;;0.90;;
57463;SDS011;43309;44.418;26.122;2023-10-09T00:17:01;0.70;;;0.70;;
57463;SDS011;43309;44.418;26.122;2023-10-09T00:19:48;0.70;;;0.70;;
57463;SDS011;43309;44.418;26.122;2023-10-09T00:22:17;1.90;;;0.70;;
57463;SDS011;43309;44.418;26.122;2023-10-09T00:24:53;0.80;;;0.80;;
57463;SDS011;43309;44.418;26.122;2023-10-09T00:27:40;1.70;;;1.00;;
57463;SDS011;43309;44.418;26.122;2023-10-09T00:30:12;1.30;;;0.90;;
57463;SDS011;43309;44.418;26.122;2023-10-09T00:32:44;2.90;;;0.60;;
57463;SDS011;43309;44.418;26.122;2023-10-09T00:35:25;1.10;;;0.80;;
57463;SDS011;43309;44.418;26.122;2023-10-09T00:38:13;1.50;;;0.90;;
57463;SDS011;43309;44.418;26.122;2023-10-09T00:40:47;2.50;;;0.90;;
57463;SDS011;43309;44.418;26.122;2023-10-09T00:43:23;0.90;;;0.80;;
57463;SDS011;43309;44.418;26.122;2023-10-09T00:45:56;1.90;;;1.00;;
57463;SDS011;43309;44.418;26.122;2023-10-09T00:48:36;2.10;;;0.90;;
57463;SDS011;43309;44.418;26.122;2023-10-09T00:51:07;0.70;;;0.70;;
57463;SDS011;43309;44.418;26.122;2023-10-09T00:53:49;3.50;;;1.00;;
57463;SDS011;43309;44.418;26.122;2023-10-09T00:56:19;0.80;;;0.80;;
57463;SDS011;43309;44.418;26.122;2023-10-09T00:58:53;1.10;;;0.60;;
57463;SDS011;43309;44.418;26.122;2023-10-09T01:01:33;0.90;;;0.80;;
57463;SDS011;43309;44.418;26.122;2023-10-09T01:04:05;0.80;;;0.70;;
57463;SDS011;43309;44.418;26.122;2023-10-09T01:06:44;1.30;;;0.90;;
57463;SDS011;43309;44.418;26.122;2023-10-09T01:09:14;1.00;;;1.00;;
57463;SDS011;43309;44.418;26.122;2023-10-09T01:11:43;1.00;;;0.90;;
57463;SDS011;43309;44.418;26.122;2023-10-09T01:14:15;1.70;;;1.00;;
57463;SDS011;43309;44.418;26.122;2023-10-09T01:16:43;1.00;;;0.90;;
57463;SDS011;43309;44.418;26.122;2023-10-09T01:19:11;1.60;;;0.80;;
57463;SDS011;43309;44.418;26.122;2023-10-09T01:21:47;0.90;;;0.90;;
57463;SDS011;43309;44.418;26.122;2023-10-09T01:24:14;0.90;;;0.70;;
57463;SDS011;43309;44.418;26.122;2023-10-09T01:26:43;1.00;;;0.80;;
57463;SDS011;43309;44.418;26.122;2023-10-09T01:29:17;5.10;;;1.00;;
57463;SDS011;43309;44.418;26.122;2023-10-09T01:31:49;0.80;;;0.70;;
57463;SDS011;43309;44.418;26.122;2023-10-09T01:37:10;0.70;;;0.70;;
57463;SDS011;43309;44.418;26.122;2023-10-09T01:39:45;2.30;;;0.90;;
57463;SDS011;43309;44.418;26.122;2023-10-09T01:42:14;1.30;;;1.00;;
57463;SDS011;43309;44.418;26.122;2023-10-09T01:45:11;0.80;;;0.80;;
57463;SDS011;43309;44.418;26.122;2023-10-09T01:47:53;0.90;;;0.80;;
57463;SDS011;43309;44.418;26.122;2023-10-09T01:50:24;1.80;;;0.90;;
57463;SDS011;43309;44.418;26.122;2023-10-09T01:52:57;2.70;;;1.00;;
57463;SDS011;43309;44.418;26.122;2023-10-09T01:55:31;1.60;;;0.90;;
57463;SDS011;43309;44.418;26.122;2023-10-09T01:58:03;1.80;;;0.90;;
57463;SDS011;43309;44.418;26.122;2023-10-09T02:00:56;2.50;;;0.90;;
57463;SDS011;43309;44.418;26.122;2023-10-09T02:03:28;2.70;;;1.10;;
57463;SDS011;43309;44.418;26.122;2023-10-09T02:06:00;0.70;;;0.70;;
57463;SDS011;43309;44.418;26.122;2023-10-09T02:08:29;3.10;;;0.80;;
57463;SDS011;43309;44.418;26.122;2023-10-09T02:10:56;2.60;;;1.10;;
57463;SDS011;43309;44.418;26.122;2023-10-09T02:13:23;2.10;;;0.90;;
57463;SDS011;43309;44.418;26.122;2023-10-09T02:15:56;1.10;;;1.00;;
57463;SDS011;43309;44.418;26.122;2023-10-09T02:18:41;1.40;;;0.90;;
57463;SDS011;43309;44.418;26.122;2023-10-09T02:21:20;0.90;;;0.70;;
57463;SDS011;43309;44.418;26.122;2023-10-09T02:24:03;1.80;;;1.00;;
57463;SDS011;43309;44.418;26.122;2023-10-09T02:26:32;1.70;;;1.00;;
57463;SDS011;43309;44.418;26.122;2023-10-09T02:29:16;1.60;;;1.00;;
57463;SDS011;43309;44.418;26.122;2023-10-09T02:31:45;1.90;;;1.00;;
57463;SDS011;43309;44.418;26.122;2023-10-09T02:34:18;1.80;;;0.90;;
57463;SDS011;43309;44.418;26.122;2023-10-09T02:36:49;2.20;;;1.20;;
57463;SDS011;43309;44.418;26.122;2023-10-09T02:39:16;2.70;;;1.00;;
57463;SDS011;43309;44.418;26.122;2023-10-09T02:41:59;2.00;;;1.00;;
57463;SDS011;43309;44.418;26.122;2023-10-09T02:44:46;0.90;;;0.80;;
57463;SDS011;43309;44.418;26.122;2023-10-09T02:47:17;1.60;;;1.20;;
57463;SDS011;43309;44.418;26.122;2023-10-09T02:49:47;2.10;;;1.10;;
57463;SDS011;43309;44.418;26.122;2023-10-09T02:52:17;1.40;;;1.00;;
57463;SDS011;43309;44.418;26.122;2023-10-09T02:55:07;2.50;;;1.10;;
57463;SDS011;43309;44.418;26.122;2023-10-09T02:57:39;1.30;;;0.90;;
57463;SDS011;43309;44.418;26.122;2023-10-09T03:00:08;2.10;;;1.30;;
57463;SDS011;43309;44.418;26.122;2023-10-09T03:02:36;3.50;;;0.90;;
57463;SDS011;43309;44.418;26.122;2023-10-09T03:05:06;1.90;;;1.10;;
57463;SDS011;43309;44.418;26.122;2023-10-09T03:07:38;1.30;;;1.10;;
57463;SDS011;43309;44.418;26.122;2023-10-09T03:10:09;0.80;;;0.80;;
57463;SDS011;43309;44.418;26.122;2023-10-09T03:12:36;1.00;;;0.90;;
57463;SDS011;43309;44.418;26.122;2023-10-09T03:15:03;1.40;;;0.90;;
57463;SDS011;43309;44.418;26.122;2023-10-09T03:17:34;1.30;;;0.90;;
57463;SDS011;43309;44.418;26.122;2023-10-09T03:20:02;2.80;;;1.00;;
57463;SDS011;43309;44.418;26.122;2023-10-09T03:22:39;5.10;;;0.90;;
57463;SDS011;43309;44.418;26.122;2023-10-09T03:25:06;3.30;;;1.10;;
57463;SDS011;43309;44.418;26.122;2023-10-09T03:27:41;1.50;;;0.90;;
57463;SDS011;43309;44.418;26.122;2023-10-09T03:30:12;1.60;;;1.00;;
57463;SDS011;43309;44.418;26.122;2023-10-09T03:32:44;1.70;;;1.10;;
57463;SDS011;43309;44.418;26.122;2023-10-09T03:35:18;3.10;;;1.10;;
57463;SDS011;43309;44.418;26.122;2023-10-09T03:37:55;1.70;;;1.10;;
57463;SDS011;43309;44.418;26.122;2023-10-09T03:40:24;1.80;;;1.30;;
57463;SDS011;43309;44.418;26.122;2023-10-09T03:42:52;3.30;;;1.00;;
57463;SDS011;43309;44.418;26.122;2023-10-09T03:45:19;1.70;;;1.00;;
57463;SDS011;43309;44.418;26.122;2023-10-09T03:47:54;1.10;;;1.00;;
57463;SDS011;43309;44.418;26.122;2023-10-09T03:50:24;3.20;;;1.20;;
57463;SDS011;43309;44.418;26.122;2023-10-09T03:52:53;1.00;;;0.80;;
57463;SDS011;43309;44.418;26.122;2023-10-09T03:55:21;1.00;;;0.90;;
57463;SDS011;43309;44.418;26.122;2023-10-09T03:57:55;2.30;;;0.80;;
57463;SDS011;43309;44.418;26.122;2023-10-09T04:00:24;1.50;;;1.00;;
57463;SDS011;43309;44.418;26.122;2023-10-09T04:02:55;2.70;;;0.90;;
57463;SDS011;43309;44.418;26.122;2023-10-09T04:05:24;0.90;;;0.60;;
57463;SDS011;43309;44.418;26.122;2023-10-09T04:07:51;1.00;;;0.90;;
57463;SDS011;43309;44.418;26.122;2023-10-09T04:10:20;2.80;;;0.90;;
57463;SDS011;43309;44.418;26.122;2023-10-09T04:13:10;1.10;;;0.80;;
57463;SDS011;43309;44.418;26.122;2023-10-09T04:15:43;1.10;;;1.00;;
57463;SDS011;43309;44.418;26.122;2023-10-09T04:18:10;1.10;;;0.90;;
57463;SDS011;43309;44.418;26.122;2023-10-09T04:20:44;2.10;;;1.20;;
57463;SDS011;43309;44.418;26.122;2023-10-09T04:23:11;1.70;;;1.00;;
57463;SDS011;43309;44.418;26.122;2023-10-09T04:28:12;2.70;;;0.80;;
57463;SDS011;43309;44.418;26.122;2023-10-09T04:30:42;2.80;;;1.00;;
57463;SDS011;43309;44.418;26.122;2023-10-09T04:33:13;2.30;;;1.00;;
57463;SDS011;43309;44.418;26.122;2023-10-09T04:36:09;1.20;;;1.00;;
57463;SDS011;43309;44.418;26.122;2023-10-09T04:38:49;1.90;;;1.00;;
57463;SDS011;43309;44.418;26.122;2023-10-09T04:41:30;1.10;;;0.90;;
57463;SDS011;43309;44.418;26.122;2023-10-09T04:44:19;2.80;;;1.00;;
57463;SDS011;43309;44.418;26.122;2023-10-09T04:46:49;1.60;;;1.00;;
57463;SDS011;43309;44.418;26.122;2023-10-09T04:49:37;3.60;;;0.90;;
57463;SDS011;43309;44.418;26.122;2023-10-09T04:52:28;1.10;;;0.90;;
57463;SDS011;43309;44.418;26.122;2023-10-09T04:54:55;0.70;;;0.70;;
57463;SDS011;43309;44.418;26.122;2023-10-09T04:57:39;1.60;;;1.00;;
57463;SDS011;43309;44.418;26.122;2023-10-09T05:00:13;2.30;;;0.90;;
57463;SDS011;43309;44.418;26.122;2023-10-09T05:02:55;1.40;;;0.90;;
57463;SDS011;43309;44.418;26.122;2023-10-09T05:05:25;1.40;;;0.70;;
57463;SDS011;43309;44.418;26.122;2023-10-09T05:08:08;1.70;;;0.80;;
57463;SDS011;43309;44.418;26.122;2023-10-09T05:10:49;1.30;;;0.90;;
57463;SDS011;43309;44.418;26.122;2023-10-09T05:13:30;1.50;;;0.90;;
57463;SDS011;43309;44.418;26.122;2023-10-09T05:18:34;2.00;;;0.90;;
57463;SDS011;43309;44.418;26.122;2023-10-09T05:21:03;1.30;;;0.80;;
57463;SDS011;43309;44.418;26.122;2023-10-09T05:23:39;1.00;;;0.80;;
57463;SDS011;43309;44.418;26.122;2023-10-09T05:26:15;2.50;;;1.10;;
57463;SDS011;43309;44.418;26.122;2023-10-09T05:29:01;2.90;;;1.40;;
57463;SDS011;43309;44.418;26.122;2023-10-09T05:31:49;1.20;;;1.00;;
57463;SDS011;43309;44.418;26.122;2023-10-09T05:34:23;2.80;;;1.10;;
57463;SDS011;43309;44.418;26.122;2023-10-09T05:37:01;2.30;;;1.00;;
57463;SDS011;43309;44.418;26.122;2023-10-09T05:39:58;2.20;;;1.10;;
57463;SDS011;43309;44.418;26.122;2023-10-09T05:42:30;4.00;;;1.10;;
57463;SDS011;43309;44.418;26.122;2023-10-09T05:45:04;2.10;;;1.10;;
57463;SDS011;43309;44.418;26.122;2023-10-09T05:47:44;1.90;;;1.00;;
57463;SDS011;43309;44.418;26.122;2023-10-09T05:50:35;2.40;;;1.00;;
57463;SDS011;43309;44.418;26.122;2023-10-09T05:53:04;1.80;;;1.20;;
57463;SDS011;43309;44.418;26.122;2023-10-09T05:55:43;1.90;;;1.00;;
57463;SDS011;43309;44.418;26.122;2023-10-09T05:58:29;1.70;;;0.90;;
57463;SDS011;43309;44.418;26.122;2023-10-09T06:01:15;1.90;;;0.90;;
57463;SDS011;43309;44.418;26.122;2023-10-09T06:04:14;2.70;;;0.90;;
57463;SDS011;43309;44.418;26.122;2023-10-09T06:06:41;2.00;;;0.90;;
57463;SDS011;43309;44.418;26.122;2023-10-09T06:09:12;1.30;;;1.00;;
57463;SDS011;43309;44.418;26.122;2023-10-09T06:11:43;1.90;;;0.70;;
57463;SDS011;43309;44.418;26.122;2023-10-09T06:14:38;4.50;;;1.20;;
57463;SDS011;43309;44.418;26.122;2023-10-09T06:17:05;8.20;;;1.10;;
57463;SDS011;43309;44.418;26.122;2023-10-09T06:19:38;36.90;;;2.40;;
57463;SDS011;43309;44.418;26.122;2023-10-09T06:22:11;23.80;;;1.80;;
57463;SDS011;43309;44.418;26.122;2023-10-09T06:24:38;9.50;;;1.80;;
57463;SDS011;43309;44.418;26.122;2023-10-09T06:27:09;8.40;;;1.20;;
57463;SDS011;43309;44.418;26.122;2023-10-09T06:29:38;11.30;;;1.30;;
57463;SDS011;43309;44.418;26.122;2023-10-09T06:32:15;15.80;;;1.60;;
57463;SDS011;43309;44.418;26.122;2023-10-09T06:34:46;9.70;;;1.00;;
57463;SDS011;43309;44.418;26.122;2023-10-09T06:37:23;15.10;;;1.10;;
57463;SDS011;43309;44.418;26.122;2023-10-09T06:39:55;3.70;;;1.20;;
57463;SDS011;43309;44.418;26.122;2023-10-09T06:45:00;5.90;;;1.00;;
57463;SDS011;43309;44.418;26.122;2023-10-09T06:47:36;6.70;;;1.60;;
57463;SDS011;43309;44.418;26.122;2023-10-09T06:50:09;20.40;;;3.80;;
57463;SDS011;43309;44.418;26.122;2023-10-09T06:52:49;236.40;;;16.50;;
57463;SDS011;43309;44.418;26.122;2023-10-09T06:55:35;123.20;;;7.20;;
57463;SDS011;43309;44.418;26.122;2023-10-09T06:58:18;381.40;;;23.90;;
57463;SDS011;43309;44.418;26.122;2023-10-09T07:00:55;540.10;;;40.20;;
57463;SDS011;43309;44.418;26.122;2023-10-09T07:03:25;305.00;;;21.30;;
57463;SDS011;43309;44.418;26.122;2023-10-09T07:06:02;153.70;;;12.90;;
57463;SDS011;43309;44.418;26.122;2023-10-09T07:08:36;187.80;;;14.70;;
57463;SDS011;43309;44.418;26.122;2023-10-09T07:11:04;126.20;;;9.60;;
57463;SDS011;43309;44.418;26.122;2023-10-09T07:13:50;108.90;;;7.20;;
57463;SDS011;43309;44.418;26.122;2023-10-09T07:16:22;56.30;;;4.40;;
57463;SDS011;43309;44.418;26.122;2023-10-09T07:19:05;29.80;;;2.80;;
57463;SDS011;43309;44.418;26.122;2023-10-09T07:21:51;25.60;;;4.50;;
57463;SDS011;43309;44.418;26.122;2023-10-09T07:24:21;33.60;;;5.60;;
57463;SDS011;43309;44.418;26.122;2023-10-09T07:27:04;35.90;;;5.00;;
57463;SDS011;43309;44.418;26.122;2023-10-09T07:29:36;38.30;;;5.80;;
57463;SDS011;43309;44.418;26.122;2023-10-09T07:32:15;18.90;;;6.10;;
57463;SDS011;43309;44.418;26.122;2023-10-09T07:34:54;33.30;;;5.00;;
57463;SDS011;43309;44.418;26.122;2023-10-09T07:37:25;13.00;;;3.00;;
57463;SDS011;43309;44.418;26.122;2023-10-09T07:39:57;9.60;;;2.20;;
57463;SDS011;43309;44.418;26.122;2023-10-09T07:42:24;9.10;;;1.80;;
57463;SDS011;43309;44.418;26.122;2023-10-09T07:45:07;35.60;;;3.10;;
57463;SDS011;43309;44.418;26.122;2023-10-09T07:47:46;43.00;;;2.70;;
57463;SDS011;43309;44.418;26.122;2023-10-09T07:50:37;24.20;;;2.50;;
57463;SDS011;43309;44.418;26.122;2023-10-09T07:53:07;15.30;;;2.90;;
57463;SDS011;43309;44.418;26.122;2023-10-09T07:55:53;15.90;;;6.10;;
57463;SDS011;43309;44.418;26.122;2023-10-09T07:58:22;21.60;;;4.00;;
57463;SDS011;43309;44.418;26.122;2023-10-09T08:00:53;20.60;;;2.80;;
57463;SDS011;43309;44.418;26.122;2023-10-09T08:03:42;29.50;;;3.20;;
57463;SDS011;43309;44.418;26.122;2023-10-09T08:06:12;23.40;;;2.40;;
57463;SDS011;43309;44.418;26.122;2023-10-09T08:08:58;33.40;;;3.10;;
57463;SDS011;43309;44.418;26.122;2023-10-09T08:11:41;69.40;;;6.00;;
57463;SDS011;43309;44.418;26.122;2023-10-09T08:14:12;94.60;;;5.80;;
57463;SDS011;43309;44.418;26.122;2023-10-09T08:16:50;47.40;;;5.20;;
57463;SDS011;43309;44.418;26.122;2023-10-09T08:19:32;40.70;;;6.00;;
57463;SDS011;43309;44.418;26.122;2023-10-09T08:22:00;41.10;;;8.00;;
57463;SDS011;43309;44.418;26.122;2023-10-09T08:24:45;28.40;;;6.40;;
57463;SDS011;43309;44.418;26.122;2023-10-09T08:27:23;24.80;;;5.80;;
57463;SDS011;43309;44.418;26.122;2023-10-09T08:30:14;17.40;;;4.00;;
57463;SDS011;43309;44.418;26.122;2023-10-09T08:32:53;30.70;;;3.90;;
57463;SDS011;43309;44.418;26.122;2023-10-09T08:35:50;508.50;;;38.80;;
57463;SDS011;43309;44.418;26.122;2023-10-09T08:38:18;200.50;;;16.30;;
57463;SDS011;43309;44.418;26.122;2023-10-09T08:40:51;128.70;;;14.10;;
57463;SDS011;43309;44.418;26.122;2023-10-09T08:43:24;95.70;;;13.40;;
57463;SDS011;43309;44.418;26.122;2023-10-09T08:45:55;74.00;;;10.40;;
57463;SDS011;43309;44.418;26.122;2023-10-09T08:48:27;55.10;;;10.10;;
57463;SDS011;43309;44.418;26.122;2023-10-09T08:50:56;54.20;;;7.70;;
57463;SDS011;43309;44.418;26.122;2023-10-09T08:53:23;90.50;;;9.40;;
57463;SDS011;43309;44.418;26.122;2023-10-09T08:55:51;113.30;;;12.40;;
57463;SDS011;43309;44.418;26.122;2023-10-09T08:58:18;100.10;;;10.00;;
57463;SDS011;43309;44.418;26.122;2023-10-09T09:00:55;78.50;;;8.60;;
57463;SDS011;43309;44.418;26.122;2023-10-09T09:03:22;67.50;;;6.30;;
57463;SDS011;43309;44.418;26.122;2023-10-09T09:06:01;62.90;;;5.80;;
57463;SDS011;43309;44.418;26.122;2023-10-09T09:08:29;49.50;;;4.60;;
57463;SDS011;43309;44.418;26.122;2023-10-09T09:11:01;38.60;;;3.90;;
57463;SDS011;43309;44.418;26.122;2023-10-09T09:13:42;55.60;;;3.90;;
57463;SDS011;43309;44.418;26.122;2023-10-09T09:18:56;36.80;;;4.00;;
57463;SDS011;43309;44.418;26.122;2023-10-09T09:21:32;52.40;;;5.00;;
57463;SDS011;43309;44.418;26.122;2023-10-09T09:24:09;105.80;;;10.40;;
57463;SDS011;43309;44.418;26.122;2023-10-09T09:26:45;119.60;;;11.10;;
57463;SDS011;43309;44.418;26.122;2023-10-09T09:29:13;59.50;;;7.30;;
57463;SDS011;43309;44.418;26.122;2023-10-09T09:31:54;53.90;;;6.20;;
57463;SDS011;43309;44.418;26.122;2023-10-09T09:34:24;36.50;;;5.80;;
57463;SDS011;43309;44.418;26.122;2023-10-09T09:36:56;50.40;;;4.70;;
57463;SDS011;43309;44.418;26.122;2023-10-09T09:39:27;52.90;;;5.70;;
57463;SDS011;43309;44.418;26.122;2023-10-09T09:41:55;31.80;;;4.20;;
57463;SDS011;43309;44.418;26.122;2023-10-09T09:44:40;37.10;;;5.20;;
57463;SDS011;43309;44.418;26.122;2023-10-09T09:49:42;139.10;;;11.70;;
57463;SDS011;43309;44.418;26.122;2023-10-09T09:52:10;116.70;;;11.60;;
57463;SDS011;43309;44.418;26.122;2023-10-09T09:54:37;101.70;;;9.20;;
57463;SDS011;43309;44.418;26.122;2023-10-09T09:57:07;82.80;;;6.90;;
57463;SDS011;43309;44.418;26.122;2023-10-09T09:59:39;137.50;;;12.80;;
57463;SDS011;43309;44.418;26.122;2023-10-09T10:02:09;282.70;;;19.80;;
57463;SDS011;43309;44.418;26.122;2023-10-09T10:04:38;136.40;;;10.00;;
57463;SDS011;43309;44.418;26.122;2023-10-09T10:07:06;106.50;;;7.80;;
57463;SDS011;43309;44.418;26.122;2023-10-09T10:09:39;91.60;;;6.00;;
57463;SDS011;43309;44.418;26.122;2023-10-09T10:12:08;63.40;;;4.60;;
57463;SDS011;43309;44.418;26.122;2023-10-09T10:14:57;59.30;;;5.20;;
57463;SDS011;43309;44.418;26.122;2023-10-09T10:20:31;135.90;;;8.60;;
57463;SDS011;43309;44.418;26.122;2023-10-09T10:23:14;86.80;;;7.40;;
57463;SDS011;43309;44.418;26.122;2023-10-09T10:25:46;104.50;;;9.20;;
57463;SDS011;43309;44.418;26.122;2023-10-09T10:31:04;113.70;;;9.00;;
57463;SDS011;43309;44.418;26.122;2023-10-09T10:36:22;113.90;;;7.40;;
57463;SDS011;43309;44.418;26.122;2023-10-09T10:39:00;100.30;;;7.00;;
57463;SDS011;43309;44.418;26.122;2023-10-09T10:41:31;98.50;;;5.80;;
57463;SDS011;43309;44.418;26.122;2023-10-09T10:44:04;62.60;;;4.90;;
57463;SDS011;43309;44.418;26.122;2023-10-09T10:46:50;58.60;;;3.30;;
57463;SDS011;43309;44.418;26.122;2023-10-09T10:49:19;33.80;;;2.50;;
57463;SDS011;43309;44.418;26.122;2023-10-09T10:51:48;25.20;;;2.30;;
57463;SDS011;43309;44.418;26.122;2023-10-09T10:54:22;29.70;;;2.10;;
57463;SDS011;43309;44.418;26.122;2023-10-09T10:56:53;16.90;;;1.50;;
57463;SDS011;43309;44.418;26.122;2023-10-09T10:59:24;21.10;;;1.60;;
57463;SDS011;43309;44.418;26.122;2023-10-09T11:01:55;21.20;;;1.70;;
57463;SDS011;43309;44.418;26.122;2023-10-09T11:04:40;39.40;;;2.90;;
57463;SDS011;43309;44.418;26.122;2023-10-09T11:09:48;29.50;;;2.70;;
57463;SDS011;43309;44.418;26.122;2023-10-09T11:12:32;36.20;;;5.10;;
57463;SDS011;43309;44.418;26.122;2023-10-09T11:15:12;25.40;;;8.50;;
57463;SDS011;43309;44.418;26.122;2023-10-09T11:17:57;43.30;;;11.30;;
57463;SDS011;43309;44.418;26.122;2023-10-09T11:20:34;44.70;;;9.10;;
57463;SDS011;43309;44.418;26.122;2023-10-09T11:23:05;44.20;;;7.90;;
57463;SDS011;43309;44.418;26.122;2023-10-09T11:25:38;53.60;;;7.40;;
57463;SDS011;43309;44.418;26.122;2023-10-09T11:28:17;108.60;;;8.70;;
57463;SDS011;43309;44.418;26.122;2023-10-09T11:31:09;225.20;;;13.40;;
57463;SDS011;43309;44.418;26.122;2023-10-09T11:33:46;247.70;;;12.80;;
57463;SDS011;43309;44.418;26.122;2023-10-09T11:36:18;198.70;;;10.90;;
57463;SDS011;43309;44.418;26.122;2023-10-09T11:39:02;154.90;;;8.60;;
57463;SDS011;43309;44.418;26.122;2023-10-09T11:42:04;247.50;;;14.90;;
57463;SDS011;43309;44.418;26.122;2023-10-09T11:44:39;183.80;;;10.90;;
57463;SDS011;43309;44.418;26.122;2023-10-09T11:47:12;142.60;;;10.40;;
57463;SDS011;43309;44.418;26.122;2023-10-09T11:49:52;89.90;;;6.20;;
57463;SDS011;43309;44.418;26.122;2023-10-09T11:52:28;71.10;;;5.50;;
57463;SDS011;43309;44.418;26.122;2023-10-09T11:55:02;91.40;;;5.80;;
57463;SDS011;43309;44.418;26.122;2023-10-09T11:57:30;78.90;;;6.90;;
57463;SDS011;43309;44.418;26.122;2023-10-09T11:59:58;56.40;;;5.50;;
57463;SDS011;43309;44.418;26.122;2023-10-09T12:02:26;45.70;;;5.00;;
57463;SDS011;43309;44.418;26.122;2023-10-09T12:04:54;63.40;;;7.00;;
57463;SDS011;43309;44.418;26.122;2023-10-09T12:07:24;140.10;;;11.70;;
57463;SDS011;43309;44.418;26.122;2023-10-09T12:09:52;119.60;;;9.20;;
57463;SDS011;43309;44.418;26.122;2023-10-09T12:14:53;120.20;;;9.60;;
57463;SDS011;43309;44.418;26.122;2023-10-09T12:17:20;97.00;;;8.30;;
57463;SDS011;43309;44.418;26.122;2023-10-09T12:19:52;79.50;;;8.10;;
57463;SDS011;43309;44.418;26.122;2023-10-09T12:22:19;73.00;;;7.00;;
57463;SDS011;43309;44.418;26.122;2023-10-09T12:24:48;70.60;;;6.60;;
57463;SDS011;43309;44.418;26.122;2023-10-09T12:27:15;47.20;;;5.20;;
57463;SDS011;43309;44.418;26.122;2023-10-09T12:29:46;32.40;;;3.90;;
57463;SDS011;43309;44.418;26.122;2023-10-09T12:32:14;32.70;;;3.10;;
57463;SDS011;43309;44.418;26.122;2023-10-09T12:34:46;21.20;;;2.20;;
57463;SDS011;43309;44.418;26.122;2023-10-09T12:37:17;12.50;;;2.10;;
57463;SDS011;43309;44.418;26.122;2023-10-09T12:39:47;11.00;;;1.50;;
57463;SDS011;43309;44.418;26.122;2023-10-09T12:42:14;6.80;;;1.50;;
57463;SDS011;43309;44.418;26.122;2023-10-09T12:44:43;7.40;;;1.50;;
57463;SDS011;43309;44.418;26.122;2023-10-09T12:47:11;8.20;;;1.40;;
57463;SDS011;43309;44.418;26.122;2023-10-09T12:49:38;5.20;;;1.20;;
57463;SDS011;43309;44.418;26.122;2023-10-09T12:52:08;7.90;;;1.10;;
57463;SDS011;43309;44.418;26.122;2023-10-09T12:54:44;3.90;;;1.00;;
57463;SDS011;43309;44.418;26.122;2023-10-09T12:57:13;2.90;;;1.40;;
57463;SDS011;43309;44.418;26.122;2023-10-09T12:59:43;8.80;;;1.40;;
57463;SDS011;43309;44.418;26.122;2023-10-09T13:02:12;3.10;;;1.30;;
57463;SDS011;43309;44.418;26.122;2023-10-09T13:04:40;3.20;;;1.20;;
57463;SDS011;43309;44.418;26.122;2023-10-09T13:07:09;33.10;;;2.40;;
57463;SDS011;43309;44.418;26.122;2023-10-09T13:09:36;24.50;;;2.40;;
57463;SDS011;43309;44.418;26.122;2023-10-09T13:12:09;37.20;;;2.90;;
57463;SDS011;43309;44.418;26.122;2023-10-09T13:14:44;21.50;;;2.30;;
57463;SDS011;43309;44.418;26.122;2023-10-09T13:17:14;20.10;;;2.40;;
57463;SDS011;43309;44.418;26.122;2023-10-09T13:19:41;12.60;;;2.00;;
57463;SDS011;43309;44.418;26.122;2023-10-09T13:22:10;11.90;;;1.60;;
57463;SDS011;43309;44.418;26.122;2023-10-09T13:24:39;10.70;;;2.10;;
57463;SDS011;43309;44.418;26.122;2023-10-09T13:27:06;14.10;;;3.40;;
57463;SDS011;43309;44.418;26.122;2023-10-09T13:29:36;11.20;;;4.60;;
57463;SDS011;43309;44.418;26.122;2023-10-09T13:32:06;8.80;;;3.50;;
57463;SDS011;43309;44.418;26.122;2023-10-09T13:34:40;7.10;;;2.90;;
57463;SDS011;43309;44.418;26.122;2023-10-09T13:37:15;6.40;;;2.40;;
57463;SDS011;43309;44.418;26.122;2023-10-09T13:39:48;6.80;;;2.20;;
57463;SDS011;43309;44.418;26.122;2023-10-09T13:42:19;18.80;;;2.90;;
57463;SDS011;43309;44.418;26.122;2023-10-09T13:44:46;12.10;;;2.20;;
57463;SDS011;43309;44.418;26.122;2023-10-09T13:47:15;7.90;;;1.60;;
57463;SDS011;43309;44.418;26.122;2023-10-09T13:49:52;6.80;;;1.40;;
57463;SDS011;43309;44.418;26.122;2023-10-09T13:52:20;9.80;;;1.60;;
57463;SDS011;43309;44.418;26.122;2023-10-09T13:54:49;4.00;;;1.50;;
57463;SDS011;43309;44.418;26.122;2023-10-09T13:57:17;10.10;;;1.50;;
57463;SDS011;43309;44.418;26.122;2023-10-09T13:59:44;6.40;;;2.20;;
57463;SDS011;43309;44.418;26.122;2023-10-09T14:02:17;2.50;;;1.70;;
57463;SDS011;43309;44.418;26.122;2023-10-09T14:04:46;3.00;;;1.30;;
57463;SDS011;43309;44.418;26.122;2023-10-09T14:07:16;3.20;;;1.60;;
57463;SDS011;43309;44.418;26.122;2023-10-09T14:09:44;8.70;;;1.50;;
57463;SDS011;43309;44.418;26.122;2023-10-09T14:12:11;4.30;;;1.50;;
57463;SDS011;43309;44.418;26.122;2023-10-09T14:14:44;8.90;;;2.50;;
57463;SDS011;43309;44.418;26.122;2023-10-09T14:17:17;19.70;;;3.20;;
57463;SDS011;43309;44.418;26.122;2023-10-09T14:19:55;18.60;;;3.10;;
57463;SDS011;43309;44.418;26.122;2023-10-09T14:22:33;18.90;;;3.10;;
57463;SDS011;43309;44.418;26.122;2023-10-09T14:25:05;31.50;;;2.60;;
57463;SDS011;43309;44.418;26.122;2023-10-09T14:27:39;12.00;;;1.90;;
57463;SDS011;43309;44.418;26.122;2023-10-09T14:30:07;17.00;;;2.10;;
57463;SDS011;43309;44.418;26.122;2023-10-09T14:32:39;7.40;;;1.70;;
57463;SDS011;43309;44.418;26.122;2023-10-09T14:35:18;4.40;;;1.20;;
57463;SDS011;43309;44.418;26.122;2023-10-09T14:37:48;23.00;;;3.20;;
57463;SDS011;43309;44.418;26.122;2023-10-09T14:40:15;17.80;;;3.20;;
57463;SDS011;43309;44.418;26.122;2023-10-09T14:42:47;11.80;;;1.90;;
57463;SDS011;43309;44.418;26.122;2023-10-09T14:45:19;13.90;;;1.80;;
57463;SDS011;43309;44.418;26.122;2023-10-09T14:47:48;7.00;;;1.90;;
57463;SDS011;43309;44.418;26.122;2023-10-09T14:50:15;19.10;;;2.00;;
57463;SDS011;43309;44.418;26.122;2023-10-09T14:52:42;16.30;;;1.60;;
57463;SDS011;43309;44.418;26.122;2023-10-09T14:55:10;11.10;;;1.50;;
57463;SDS011;43309;44.418;26.122;2023-10-09T14:57:37;14.80;;;1.20;;
57463;SDS011;43309;44.418;26.122;2023-10-09T15:00:04;15.60;;;1.70;;
57463;SDS011;43309;44.418;26.122;2023-10-09T15:02:40;10.90;;;1.60;;
57463;SDS011;43309;44.418;26.122;2023-10-09T15:05:07;19.50;;;1.90;;
57463;SDS011;43309;44.418;26.122;2023-10-09T15:07:38;20.30;;;1.70;;
57463;SDS011;43309;44.418;26.122;2023-10-09T15:10:07;15.10;;;1.60;;
57463;SDS011;43309;44.418;26.122;2023-10-09T15:12:36;26.60;;;2.30;;
57463;SDS011;43309;44.418;26.122;2023-10-09T15:15:09;27.00;;;2.10;;
57463;SDS011;43309;44.418;26.122;2023-10-09T15:17:40;27.90;;;2.50;;
57463;SDS011;43309;44.418;26.122;2023-10-09T15:20:11;22.10;;;1.80;;
57463;SDS011;43309;44.418;26.122;2023-10-09T15:22:43;14.80;;;1.50;;
57463;SDS011;43309;44.418;26.122;2023-10-09T15:25:11;25.10;;;1.90;;
57463;SDS011;43309;44.418;26.122;2023-10-09T15:27:41;23.50;;;2.20;;
57463;SDS011;43309;44.418;26.122;2023-10-09T15:30:09;23.30;;;2.20;;
57463;SDS011;43309;44.418;26.122;2023-10-09T15:32:40;31.90;;;2.20;;
57463;SDS011;43309;44.418;26.122;2023-10-09T15:35:10;15.80;;;1.60;;